createdAt,value
2018-05-18T00:01:01.315Z,22.17
2018-05-18T00:03:28.787Z,23.50
2018-05-18T00:05:56.183Z,21.70
2018-05-18T00:08:23.586Z,20.40
2018-05-18T00:10:51.564Z,21.50
2018-05-18T00:13:18.956Z,20.20
2018-05-18T00:15:46.359Z,21.63
2018-05-18T00:18:13.761Z,20.30
2018-05-18T00:20:41.176Z,22.53
2018-05-18T00:23:08.605Z,22.30
2018-05-18T00:25:35.988Z,21.25
2018-05-18T00:28:03.454Z,21.20
2018-05-18T00:30:30.848Z,19.80
2018-05-18T00:32:58.232Z,24.05
2018-05-18T00:35:26.465Z,22.92
2018-05-18T00:37:53.845Z,24.30
2018-05-18T00:40:21.244Z,22.73
2018-05-18T00:42:48.643Z,23.90
2018-05-18T00:45:16.040Z,25.13
2018-05-18T00:47:43.436Z,23.97
2018-05-18T00:50:10.844Z,24.33
2018-05-18T00:52:38.234Z,25.23
2018-05-18T00:55:17.460Z,24.17
2018-05-18T00:57:44.907Z,25.93
2018-05-18T01:00:12.304Z,24.60
2018-05-18T01:02:39.701Z,25.23
2018-05-18T01:05:07.099Z,22.25
2018-05-18T01:10:08.309Z,22.53
2018-05-18T01:12:35.704Z,22.80
2018-05-18T01:15:03.134Z,22.43
2018-05-18T01:17:30.521Z,23.65
2018-05-18T01:19:57.923Z,22.30
2018-05-18T01:22:25.321Z,23.03
2018-05-18T01:24:52.800Z,22.10
2018-05-18T01:27:20.183Z,23.53
2018-05-18T01:29:47.584Z,25.60
2018-05-18T01:32:14.972Z,24.54
2018-05-18T01:34:42.414Z,23.17
2018-05-18T01:37:09.803Z,24.63
2018-05-18T01:39:37.712Z,21.90
2018-05-18T01:42:05.110Z,21.77
2018-05-18T01:44:32.728Z,22.63
2018-05-18T01:47:00.119Z,23.80
2018-05-18T01:49:27.510Z,22.60
2018-05-18T01:51:54.972Z,24.37
2018-05-18T01:54:22.361Z,22.00
2018-05-18T01:56:49.748Z,21.97
2018-05-18T01:59:17.848Z,20.10
2018-05-18T02:01:45.302Z,22.43
2018-05-18T02:04:12.691Z,20.43
2018-05-18T02:06:40.093Z,21.58
2018-05-18T02:09:07.475Z,24.17
2018-05-18T02:11:34.887Z,21.80
2018-05-18T02:14:02.271Z,21.23
2018-05-18T02:16:29.673Z,20.93
2018-05-18T02:18:57.354Z,19.83
2018-05-18T02:21:24.756Z,20.37
2018-05-18T02:23:52.147Z,21.33
2018-05-18T02:26:19.562Z,18.27
2018-05-18T02:28:46.966Z,19.53
2018-05-18T02:31:14.361Z,20.63
2018-05-18T02:33:41.758Z,20.03
2018-05-18T02:36:09.247Z,21.85
2018-05-18T02:38:36.632Z,20.03
2018-05-18T02:41:04.037Z,19.60
2018-05-18T02:43:31.432Z,20.20
2018-05-18T02:45:58.921Z,16.90
2018-05-18T02:48:26.309Z,16.47
2018-05-18T02:50:53.705Z,16.07
2018-05-18T02:53:21.107Z,17.90
2018-05-18T02:55:48.495Z,20.12
2018-05-18T02:58:15.903Z,16.93
2018-05-18T03:00:43.297Z,17.50
2018-05-18T03:03:10.741Z,18.63
2018-05-18T03:05:38.159Z,17.87
2018-05-18T03:08:05.561Z,21.65
2018-05-18T03:10:32.949Z,19.50
2018-05-18T03:13:01.494Z,20.52
2018-05-18T03:15:28.883Z,18.87
2018-05-18T03:17:56.271Z,19.40
2018-05-18T03:20:23.686Z,18.45
2018-05-18T03:22:51.351Z,19.43
2018-05-18T03:25:18.741Z,18.40
2018-05-18T03:27:46.147Z,19.80
2018-05-18T03:30:13.641Z,19.67
2018-05-18T03:32:41.040Z,17.03
2018-05-18T03:35:08.428Z,20.17
2018-05-18T03:37:35.823Z,17.50
2018-05-18T03:40:04.018Z,18.42
2018-05-18T03:42:32.416Z,17.92
2018-05-18T03:45:00.488Z,17.83
2018-05-18T03:47:27.887Z,18.20
2018-05-18T03:49:55.272Z,19.70
2018-05-18T03:52:22.677Z,16.23
2018-05-18T03:54:50.207Z,18.27
2018-05-18T03:57:17.623Z,18.87
2018-05-18T03:59:45.014Z,17.87
2018-05-18T04:02:24.219Z,18.00
2018-05-18T04:08:04.746Z,16.92
2018-05-18T04:10:32.141Z,16.23
2018-05-18T04:12:59.770Z,20.10
2018-05-18T04:15:27.155Z,16.90
2018-05-18T04:17:54.569Z,16.80
2018-05-18T04:20:22.030Z,15.77
2018-05-18T04:22:49.490Z,15.47
2018-05-18T04:25:16.904Z,17.47
2018-05-18T04:27:44.309Z,16.17
2018-05-18T04:30:11.808Z,15.73
2018-05-18T04:35:18.752Z,15.43
2018-05-18T04:37:47.092Z,15.02
2018-05-18T04:40:14.509Z,15.90
2018-05-18T04:42:41.969Z,14.17
2018-05-18T04:45:09.375Z,13.83
2018-05-18T04:47:36.817Z,15.60
2018-05-18T04:50:04.765Z,14.55
2018-05-18T04:52:32.173Z,14.83
2018-05-18T04:54:59.568Z,15.57
2018-05-18T04:57:27.213Z,13.17
2018-05-18T04:59:54.689Z,15.00
2018-05-18T05:02:22.155Z,13.33
2018-05-18T05:04:49.642Z,14.70
2018-05-18T05:07:17.106Z,12.90
2018-05-18T05:09:44.583Z,12.30
2018-05-18T05:12:12.760Z,13.18
2018-05-18T05:14:40.351Z,11.88
2018-05-18T05:17:08.213Z,12.53
2018-05-18T05:19:35.889Z,11.60
2018-05-18T05:22:03.370Z,13.13
2018-05-18T05:24:30.767Z,11.00
2018-05-18T05:26:58.176Z,10.70
2018-05-18T05:29:25.606Z,10.87
2018-05-18T05:31:53.007Z,9.90
2018-05-18T05:34:20.419Z,10.70
2018-05-18T05:36:47.857Z,10.90
2018-05-18T05:39:15.303Z,11.07
2018-05-18T05:41:42.708Z,10.90
2018-05-18T05:44:10.105Z,11.40
2018-05-18T05:46:37.520Z,10.30
2018-05-18T05:49:04.942Z,10.10
2018-05-18T05:51:32.343Z,10.47
2018-05-18T05:53:59.744Z,9.87
2018-05-18T05:56:27.168Z,9.57
2018-05-18T05:58:54.639Z,9.00
2018-05-18T06:01:22.037Z,11.27
2018-05-18T06:03:49.443Z,11.77
2018-05-18T06:06:17.032Z,10.43
2018-05-18T06:08:44.421Z,9.57
2018-05-18T06:11:11.822Z,8.93
2018-05-18T06:13:39.240Z,10.57
2018-05-18T06:16:06.852Z,10.40
2018-05-18T06:18:34.240Z,9.33
2018-05-18T06:21:01.776Z,9.17
2018-05-18T06:23:29.249Z,10.60
2018-05-18T06:25:56.644Z,9.07
2018-05-18T06:28:24.030Z,9.68
2018-05-18T06:30:51.427Z,10.73
2018-05-18T06:33:19.039Z,11.10
2018-05-18T06:35:46.449Z,11.55
2018-05-18T06:38:13.835Z,11.70
2018-05-18T06:40:41.250Z,12.80
2018-05-18T06:43:09.191Z,10.70
2018-05-18T06:45:36.597Z,11.80
2018-05-18T06:48:04.010Z,12.52
2018-05-18T06:50:31.596Z,10.60
2018-05-18T06:52:59.003Z,10.50
2018-05-18T06:55:26.395Z,12.18
2018-05-18T06:57:53.800Z,10.23
2018-05-18T07:00:21.801Z,13.00
2018-05-18T07:02:49.208Z,12.02
2018-05-18T07:05:16.599Z,9.50
2018-05-18T07:07:44.019Z,11.73
2018-05-18T07:10:11.451Z,15.70
2018-05-18T07:12:38.848Z,11.70
2018-05-18T07:15:06.235Z,11.65
2018-05-18T07:17:33.651Z,13.60
2018-05-18T07:20:01.101Z,12.57
2018-05-18T07:22:28.507Z,11.00
2018-05-18T07:24:55.892Z,12.05
2018-05-18T07:27:23.354Z,12.90
2018-05-18T07:29:50.753Z,12.80
2018-05-18T07:32:18.156Z,14.40
2018-05-18T07:34:45.540Z,12.10
2018-05-18T07:37:13.059Z,11.10
2018-05-18T07:39:40.456Z,12.67
2018-05-18T07:42:07.876Z,12.03
2018-05-18T07:44:35.308Z,10.80
2018-05-18T07:47:02.932Z,12.02
2018-05-18T07:49:30.325Z,11.53
2018-05-18T07:51:57.738Z,11.82
2018-05-18T07:54:25.259Z,10.80
2018-05-18T07:56:53.234Z,10.00
2018-05-18T07:59:20.657Z,11.83
2018-05-18T08:01:48.397Z,9.90
2018-05-18T08:04:15.788Z,11.73
2018-05-18T08:06:43.189Z,9.70
2018-05-18T08:09:10.604Z,10.60
2018-05-18T08:11:37.996Z,11.33
2018-05-18T08:14:05.398Z,11.60
2018-05-18T08:16:32.793Z,10.03
2018-05-18T08:19:00.648Z,10.90
2018-05-18T08:21:28.286Z,9.87
2018-05-18T08:23:55.601Z,9.63
2018-05-18T08:26:22.992Z,11.00
2018-05-18T08:29:02.308Z,11.90
2018-05-18T08:31:29.753Z,9.13
2018-05-18T08:33:57.154Z,11.10
2018-05-18T08:36:24.545Z,10.63
2018-05-18T08:38:52.119Z,11.53
2018-05-18T08:41:19.510Z,11.48
2018-05-18T08:43:46.908Z,10.20
2018-05-18T08:46:15.403Z,10.63
2018-05-18T08:48:42.810Z,9.60
2018-05-18T08:51:10.195Z,11.77
2018-05-18T08:53:37.608Z,11.00
2018-05-18T08:56:05.009Z,8.70
2018-05-18T08:58:32.407Z,11.60
2018-05-18T09:00:59.804Z,12.43
2018-05-18T09:03:27.231Z,10.25
2018-05-18T09:05:54.618Z,10.60
2018-05-18T09:08:22.027Z,12.27
2018-05-18T09:10:49.417Z,9.60
2018-05-18T09:13:16.837Z,11.10
2018-05-18T09:15:44.222Z,10.60
2018-05-18T09:18:11.627Z,9.93
2018-05-18T09:20:39.025Z,10.03
2018-05-18T09:23:07.393Z,8.88
2018-05-18T09:25:34.783Z,8.90
2018-05-18T09:28:02.225Z,9.97
2018-05-18T09:30:29.716Z,8.70
2018-05-18T09:32:57.125Z,10.73
2018-05-18T09:35:24.510Z,11.47
2018-05-18T09:37:52.341Z,12.52
2018-05-18T09:40:19.754Z,12.13
2018-05-18T09:42:47.479Z,9.25
2018-05-18T09:45:14.915Z,11.70
2018-05-18T09:47:42.359Z,10.37
2018-05-18T09:50:10.872Z,9.18
2018-05-18T09:52:38.263Z,10.63
2018-05-18T09:55:05.734Z,9.73
2018-05-18T09:57:33.611Z,10.50
2018-05-18T10:00:01.015Z,10.23
2018-05-18T10:02:28.824Z,9.95
2018-05-18T10:04:57.000Z,11.10
2018-05-18T10:07:24.396Z,9.45
2018-05-18T10:09:51.786Z,9.90
2018-05-18T10:12:19.199Z,10.53
2018-05-18T10:14:46.577Z,9.35
2018-05-18T10:17:13.976Z,10.57
2018-05-18T10:19:41.393Z,9.83
2018-05-18T10:22:08.780Z,12.20
2018-05-18T10:24:36.177Z,9.13
2018-05-18T10:27:03.645Z,10.60
2018-05-18T10:29:31.012Z,10.77
2018-05-18T10:31:58.415Z,12.40
2018-05-18T10:34:25.823Z,11.25
2018-05-18T10:36:53.435Z,9.85
2018-05-18T10:39:20.843Z,9.80
2018-05-18T10:41:48.245Z,8.37
2018-05-18T10:44:15.630Z,8.70
2018-05-18T10:46:43.026Z,10.20
2018-05-18T10:49:11.097Z,10.37
2018-05-18T10:51:38.487Z,9.52
2018-05-18T10:54:05.948Z,10.43
2018-05-18T10:56:33.348Z,9.00
2018-05-18T10:59:00.736Z,9.60
2018-05-18T11:01:28.132Z,8.83
2018-05-18T11:03:55.541Z,10.10
2018-05-18T11:06:22.945Z,8.52
2018-05-18T11:08:50.462Z,8.40
2018-05-18T11:11:17.875Z,10.17
2018-05-18T11:13:45.351Z,9.30
2018-05-18T11:16:12.759Z,8.73
2018-05-18T11:18:40.152Z,10.10
2018-05-18T11:21:07.818Z,9.10
2018-05-18T11:23:35.295Z,9.10
2018-05-18T11:26:02.692Z,10.70
2018-05-18T11:28:30.084Z,8.48
2018-05-18T11:30:57.588Z,8.70
2018-05-18T11:33:24.991Z,7.27
2018-05-18T11:35:52.383Z,8.03
2018-05-18T11:38:19.812Z,7.55
2018-05-18T11:40:47.197Z,8.27
2018-05-18T11:43:14.589Z,8.80
2018-05-18T11:45:42.532Z,8.48
2018-05-18T11:48:10.025Z,8.00
2018-05-18T11:50:37.327Z,9.07
2018-05-18T11:53:04.713Z,8.27
2018-05-18T11:55:32.104Z,8.50
2018-05-18T11:57:59.535Z,9.47
2018-05-18T12:00:26.929Z,8.40
2018-05-18T12:02:54.392Z,8.07
2018-05-18T12:05:22.450Z,8.30
2018-05-18T12:07:49.872Z,8.43
2018-05-18T12:10:17.267Z,8.30
2018-05-18T12:12:44.651Z,9.20
2018-05-18T12:15:12.210Z,6.93
2018-05-18T12:17:39.630Z,7.57
2018-05-18T12:20:07.943Z,7.75
2018-05-18T12:22:35.506Z,6.57
2018-05-18T12:25:02.920Z,8.47
2018-05-18T12:27:30.314Z,7.93
2018-05-18T12:29:58.320Z,8.70
2018-05-18T12:32:28.051Z,8.75
2018-05-18T12:34:55.444Z,8.20
2018-05-18T12:37:22.901Z,7.67
2018-05-18T12:39:50.292Z,7.87
2018-05-18T12:42:17.700Z,8.65
2018-05-18T12:44:45.219Z,8.80
2018-05-18T12:47:12.548Z,7.10
2018-05-18T12:49:39.953Z,8.50
2018-05-18T12:52:07.352Z,7.50
2018-05-18T12:54:34.891Z,7.40
2018-05-18T12:57:02.298Z,8.87
2018-05-18T12:59:29.707Z,6.63
2018-05-18T13:01:57.072Z,7.03
2018-05-18T13:04:24.520Z,7.20
2018-05-18T13:06:51.914Z,6.17
2018-05-18T13:09:19.319Z,8.17
2018-05-18T13:11:46.752Z,6.80
2018-05-18T13:14:14.137Z,6.70
2018-05-18T13:16:41.526Z,6.68
2018-05-18T13:19:08.937Z,6.47
2018-05-18T13:21:37.217Z,6.13
2018-05-18T13:24:04.621Z,5.33
2018-05-18T13:26:32.003Z,6.20
2018-05-18T13:28:59.484Z,5.68
2018-05-18T13:31:26.852Z,7.40
2018-05-18T13:33:54.472Z,7.10
2018-05-18T13:36:22.591Z,6.47
2018-05-18T13:38:50.077Z,6.70
2018-05-18T13:41:17.896Z,7.70
2018-05-18T13:43:45.316Z,7.20
2018-05-18T13:46:12.921Z,7.67
2018-05-18T13:48:41.776Z,6.53
2018-05-18T13:51:09.180Z,7.20
2018-05-18T13:53:37.132Z,6.20
2018-05-18T13:56:04.972Z,7.47
2018-05-18T13:58:32.392Z,7.03
2018-05-18T14:00:59.769Z,8.03
2018-05-18T14:03:27.164Z,6.90
2018-05-18T14:05:54.559Z,7.00
2018-05-18T14:08:22.001Z,6.97
2018-05-18T14:10:50.076Z,7.90
2018-05-18T14:13:17.472Z,8.18
2018-05-18T14:15:44.888Z,7.90
2018-05-18T14:18:12.640Z,7.53
2018-05-18T14:20:40.045Z,7.80
2018-05-18T14:23:08.241Z,7.40
2018-05-18T14:25:36.107Z,6.67
2018-05-18T14:28:03.501Z,6.33
2018-05-18T14:30:31.415Z,7.90
2018-05-18T14:32:58.972Z,7.50
2018-05-18T14:35:26.376Z,7.80
2018-05-18T14:37:53.821Z,7.63
2018-05-18T14:40:21.178Z,8.60
2018-05-18T14:42:48.657Z,8.20
2018-05-18T14:45:16.057Z,8.87
2018-05-18T14:47:43.451Z,8.37
2018-05-18T14:50:10.880Z,7.32
2018-05-18T14:52:39.259Z,7.30
2018-05-18T14:55:06.652Z,6.53
2018-05-18T14:57:34.096Z,7.13
2018-05-18T15:00:01.495Z,7.80
2018-05-18T15:02:28.892Z,9.27
2018-05-18T15:04:56.290Z,8.33
2018-05-18T15:07:23.909Z,9.53
2018-05-18T15:09:51.307Z,8.63
2018-05-18T15:12:19.730Z,7.53
2018-05-18T15:14:47.142Z,8.70
2018-05-18T15:17:14.520Z,9.67
2018-05-18T15:19:41.934Z,8.60
2018-05-18T15:22:09.362Z,10.15
2018-05-18T15:24:36.787Z,8.00
2018-05-18T15:27:04.208Z,7.30
2018-05-18T15:29:31.592Z,8.07
2018-05-18T15:31:59.000Z,8.53
2018-05-18T15:34:27.270Z,9.37
2018-05-18T15:36:54.663Z,9.67
2018-05-18T15:39:22.056Z,9.10
2018-05-18T15:41:49.452Z,9.18
2018-05-18T15:44:16.863Z,9.43
2018-05-18T15:46:45.165Z,9.00
2018-05-18T15:49:12.551Z,8.10
2018-05-18T15:51:39.946Z,10.07
2018-05-18T15:54:07.334Z,7.73
2018-05-18T15:56:34.743Z,8.33
2018-05-18T15:59:02.717Z,7.12
2018-05-18T16:01:30.116Z,8.32
2018-05-18T16:03:58.110Z,7.63
2018-05-18T16:06:25.604Z,8.50
2018-05-18T16:08:53.007Z,7.80
2018-05-18T16:11:20.400Z,7.90
2018-05-18T16:13:47.804Z,10.20
2018-05-18T16:16:15.244Z,7.80
2018-05-18T16:18:42.632Z,11.20
2018-05-18T16:21:10.028Z,9.23
2018-05-18T16:23:37.424Z,9.13
2018-05-18T16:26:05.343Z,10.10
2018-05-18T16:28:32.737Z,8.50
2018-05-18T16:31:00.155Z,9.50
2018-05-18T16:33:27.582Z,10.00
2018-05-18T16:35:54.966Z,9.47
2018-05-18T16:38:22.379Z,7.70
2018-05-18T16:40:49.763Z,7.93
2018-05-18T16:43:17.169Z,9.53
2018-05-18T16:45:44.567Z,8.57
2018-05-18T16:48:11.970Z,10.53
2018-05-18T16:50:39.379Z,9.80
2018-05-18T16:53:06.860Z,10.63
2018-05-18T16:55:34.245Z,8.50
2018-05-18T16:58:01.735Z,8.90
2018-05-18T17:00:29.041Z,8.82
2018-05-18T17:02:56.443Z,10.57
2018-05-18T17:05:24.157Z,8.50
2018-05-18T17:07:51.565Z,8.40
2018-05-18T17:10:19.120Z,7.53
2018-05-18T17:12:46.520Z,8.20
2018-05-18T17:15:13.928Z,9.75
2018-05-18T17:17:41.331Z,9.10
2018-05-18T17:20:09.133Z,9.13
2018-05-18T17:22:36.542Z,9.30
2018-05-18T17:25:03.944Z,9.30
2018-05-18T17:27:32.000Z,10.25
2018-05-18T17:29:59.511Z,11.33
2018-05-18T17:32:26.928Z,10.90
2018-05-18T17:34:54.323Z,12.13
2018-05-18T17:37:21.721Z,11.23
2018-05-18T17:39:49.459Z,10.53
2018-05-18T17:42:16.881Z,11.20
2018-05-18T17:44:44.528Z,11.30
2018-05-18T17:47:12.371Z,11.20
2018-05-18T17:49:39.782Z,11.50
2018-05-18T17:52:07.183Z,11.97
2018-05-18T17:54:34.698Z,14.20
2018-05-18T17:57:02.088Z,11.70
2018-05-18T17:59:29.499Z,12.80
2018-05-18T18:01:57.538Z,12.67
2018-05-18T18:04:25.040Z,14.40
2018-05-18T18:06:52.800Z,12.83
2018-05-18T18:09:20.199Z,13.23
2018-05-18T18:11:47.720Z,13.47
2018-05-18T18:14:15.128Z,14.70
2018-05-18T18:16:42.524Z,14.87
2018-05-18T18:19:10.537Z,13.10
2018-05-18T18:21:38.623Z,15.20
2018-05-18T18:24:06.028Z,13.33
2018-05-18T18:26:35.285Z,13.85
2018-05-18T18:29:02.696Z,13.10
2018-05-18T18:31:31.008Z,13.80
2018-05-18T18:34:00.066Z,12.63
2018-05-18T18:36:28.244Z,13.95
2018-05-18T18:38:56.170Z,15.20
2018-05-18T18:41:23.620Z,12.40
2018-05-18T18:43:51.025Z,13.70
2018-05-18T18:46:18.419Z,15.10
2018-05-18T18:48:46.576Z,14.33
2018-05-18T18:51:14.774Z,13.70
2018-05-18T18:53:42.274Z,14.60
2018-05-18T18:56:09.772Z,13.93
2018-05-18T18:58:37.185Z,13.37
2018-05-18T19:01:04.943Z,13.27
2018-05-18T19:03:32.916Z,12.37
2018-05-18T19:06:01.428Z,15.70
2018-05-18T19:08:28.889Z,14.30
2018-05-18T19:10:57.303Z,14.77
2018-05-18T19:13:24.704Z,14.63
2018-05-18T19:15:52.169Z,14.60
2018-05-18T19:18:19.581Z,14.63
2018-05-18T19:20:47.052Z,13.00
2018-05-18T19:23:14.527Z,14.48
2018-05-18T19:25:41.939Z,13.80
2018-05-18T19:28:09.353Z,14.47
2018-05-18T19:30:37.901Z,14.33
2018-05-18T19:33:05.587Z,15.02
2018-05-18T19:35:33.863Z,14.50
2018-05-18T19:38:01.241Z,14.97
2018-05-18T19:40:28.676Z,14.90
2018-05-18T19:42:56.113Z,17.12
2018-05-18T19:45:23.532Z,14.70
2018-05-18T19:47:51.648Z,15.40
2018-05-18T19:50:19.038Z,14.47
2018-05-18T19:52:46.421Z,14.77
2018-05-18T19:55:13.839Z,15.03
2018-05-18T19:57:41.232Z,14.80
2018-05-18T20:00:09.615Z,15.70
2018-05-18T20:02:37.005Z,18.43
2018-05-18T20:05:04.435Z,18.23
2018-05-18T20:07:31.824Z,19.17
2018-05-18T20:09:59.220Z,15.30
2018-05-18T20:12:26.620Z,17.80
2018-05-18T20:14:54.299Z,18.98
2018-05-18T20:17:21.675Z,19.73
2018-05-18T20:19:49.131Z,16.80
2018-05-18T20:22:16.464Z,17.37
2018-05-18T20:24:44.028Z,13.47
2018-05-18T20:27:11.424Z,17.60
2018-05-18T20:29:38.813Z,16.03
2018-05-18T20:32:06.221Z,15.67
2018-05-18T20:34:33.620Z,15.33
2018-05-18T20:37:01.027Z,15.70
2018-05-18T20:39:28.425Z,16.20
2018-05-18T20:41:55.816Z,16.63
2018-05-18T20:44:23.374Z,16.62
2018-05-18T20:46:50.770Z,16.90
2018-05-18T20:49:18.436Z,17.70
2018-05-18T20:51:47.357Z,18.90
2018-05-18T20:54:14.698Z,18.08
2018-05-18T20:56:42.096Z,17.13
2018-05-18T20:59:09.732Z,18.00
2018-05-18T21:01:37.111Z,20.60
2018-05-18T21:04:04.738Z,16.90
2018-05-18T21:06:32.136Z,17.10
2018-05-18T21:08:59.599Z,16.50
2018-05-18T21:11:27.004Z,16.77
2018-05-18T21:13:55.237Z,17.00
2018-05-18T21:16:23.272Z,18.37
2018-05-18T21:18:50.665Z,16.13
2018-05-18T21:21:18.078Z,15.13
2018-05-18T21:23:45.463Z,15.50
2018-05-18T21:26:13.132Z,17.83
2018-05-18T21:28:40.532Z,16.73
2018-05-18T21:31:07.924Z,17.50
2018-05-18T21:33:35.859Z,14.37
2018-05-18T21:36:03.263Z,16.77
2018-05-18T21:38:30.663Z,14.87
2018-05-18T21:40:58.260Z,16.25
2018-05-18T21:43:25.703Z,16.73
2018-05-18T21:45:53.090Z,15.10
2018-05-18T21:48:20.500Z,16.60
2018-05-18T21:50:47.884Z,17.60
2018-05-18T21:53:15.291Z,17.70
2018-05-18T21:55:43.733Z,20.80
2018-05-18T21:58:11.180Z,18.23
2018-05-18T22:02:41.684Z,19.33
2018-05-18T22:05:09.271Z,17.20
2018-05-18T22:07:36.667Z,17.33
2018-05-18T22:10:04.127Z,15.83
2018-05-18T22:12:31.537Z,18.80
2018-05-18T22:14:59.219Z,18.10
2018-05-18T22:17:26.606Z,16.25
2018-05-18T22:19:54.802Z,18.33
2018-05-18T22:22:22.220Z,16.33
2018-05-18T22:24:49.616Z,17.70
2018-05-18T22:27:17.029Z,16.20
2018-05-18T22:29:45.461Z,17.50
2018-05-18T22:32:12.873Z,17.00
2018-05-18T22:34:40.265Z,17.30
2018-05-18T22:37:07.701Z,16.87
2018-05-18T22:39:35.371Z,18.23
2018-05-18T22:42:03.361Z,15.73
2018-05-18T22:44:30.763Z,16.97
2018-05-18T22:46:58.177Z,16.58
2018-05-18T22:49:25.575Z,16.50
2018-05-18T22:51:52.959Z,16.27
2018-05-18T22:54:20.780Z,17.10
2018-05-18T22:56:48.384Z,17.40
2018-05-18T22:59:15.792Z,16.73
2018-05-18T23:01:43.189Z,17.13
2018-05-18T23:04:11.450Z,16.60
2018-05-18T23:06:38.824Z,16.50
2018-05-18T23:09:06.232Z,16.90
2018-05-18T23:11:33.760Z,18.03
2018-05-18T23:14:01.162Z,15.38
2018-05-18T23:16:28.547Z,15.85
2018-05-18T23:18:55.953Z,17.37
2018-05-18T23:21:23.352Z,16.45
2018-05-18T23:23:50.760Z,15.73
2018-05-18T23:26:18.156Z,14.87
2018-05-18T23:28:45.711Z,15.13
2018-05-18T23:31:13.196Z,16.17
2018-05-18T23:33:41.226Z,16.90
2018-05-18T23:36:08.612Z,17.43
2018-05-18T23:38:36.333Z,15.63
2018-05-18T23:41:03.737Z,16.30
2018-05-18T23:43:31.155Z,17.30
2018-05-18T23:45:58.650Z,15.73
2018-05-18T23:48:26.054Z,18.08
2018-05-18T23:50:53.536Z,16.93
2018-05-18T23:53:20.926Z,18.40
2018-05-18T23:55:48.988Z,16.53
2018-05-18T23:58:16.396Z,15.87
